sensor_id;sensor_type;location;lat;lon;timestamp;P1;durP1;ratioP1;P2;durP2;ratioP2
22026;SDS011;11177;50.966;10.070;2023-11-22T00:02:17;4.07;;;2.53;;
22026;SDS011;11177;50.966;10.070;2023-11-22T00:18:47;2.55;;;2.13;;
22026;SDS011;11177;50.966;10.070;2023-11-22T00:21:18;3.33;;;2.10;;
22026;SDS011;11177;50.966;10.070;2023-11-22T00:23:46;3.58;;;2.63;;
22026;SDS011;11177;50.966;10.070;2023-11-22T00:26:13;2.85;;;2.15;;
22026;SDS011;11177;50.966;10.070;2023-11-22T00:28:42;6.25;;;2.20;;
22026;SDS011;11177;50.966;10.070;2023-11-22T00:31:09;4.07;;;2.22;;
22026;SDS011;11177;50.966;10.070;2023-11-22T00:33:36;3.33;;;2.38;;
22026;SDS011;11177;50.966;10.070;2023-11-22T00:36:03;2.70;;;2.40;;
22026;SDS011;11177;50.966;10.070;2023-11-22T00:38:31;3.97;;;2.30;;
22026;SDS011;11177;50.966;10.070;2023-11-22T00:40:59;2.97;;;2.33;;
22026;SDS011;11177;50.966;10.070;2023-11-22T00:43:26;3.60;;;2.20;;
22026;SDS011;11177;50.966;10.070;2023-11-22T00:45:54;3.28;;;2.58;;
22026;SDS011;11177;50.966;10.070;2023-11-22T00:48:20;3.38;;;2.50;;
22026;SDS011;11177;50.966;10.070;2023-11-22T00:50:48;3.75;;;2.50;;
22026;SDS011;11177;50.966;10.070;2023-11-22T00:53:15;3.85;;;2.58;;
22026;SDS011;11177;50.966;10.070;2023-11-22T00:55:42;4.35;;;2.80;;
22026;SDS011;11177;50.966;10.070;2023-11-22T00:58:09;4.53;;;2.50;;
22026;SDS011;11177;50.966;10.070;2023-11-22T01:00:36;5.57;;;2.28;;
22026;SDS011;11177;50.966;10.070;2023-11-22T01:03:03;4.40;;;2.42;;
22026;SDS011;11177;50.966;10.070;2023-11-22T01:05:31;4.07;;;2.30;;
22026;SDS011;11177;50.966;10.070;2023-11-22T01:07:59;5.30;;;2.53;;
22026;SDS011;11177;50.966;10.070;2023-11-22T01:10:25;5.05;;;2.45;;
22026;SDS011;11177;50.966;10.070;2023-11-22T01:12:53;5.60;;;2.60;;
22026;SDS011;11177;50.966;10.070;2023-11-22T01:15:20;3.83;;;2.40;;
22026;SDS011;11177;50.966;10.070;2023-11-22T01:17:47;3.47;;;2.15;;
22026;SDS011;11177;50.966;10.070;2023-11-22T01:20:14;4.18;;;3.08;;
22026;SDS011;11177;50.966;10.070;2023-11-22T01:22:41;3.13;;;2.13;;
22026;SDS011;11177;50.966;10.070;2023-11-22T01:25:09;5.15;;;2.30;;
22026;SDS011;11177;50.966;10.070;2023-11-22T01:27:36;3.03;;;2.08;;
22026;SDS011;11177;50.966;10.070;2023-11-22T01:30:04;2.92;;;1.88;;
22026;SDS011;11177;50.966;10.070;2023-11-22T01:32:34;5.68;;;2.13;;
22026;SDS011;11177;50.966;10.070;2023-11-22T01:35:04;3.15;;;2.45;;
22026;SDS011;11177;50.966;10.070;2023-11-22T01:37:32;4.38;;;2.40;;
22026;SDS011;11177;50.966;10.070;2023-11-22T01:39:59;3.65;;;2.58;;
22026;SDS011;11177;50.966;10.070;2023-11-22T01:42:28;4.60;;;2.70;;
22026;SDS011;11177;50.966;10.070;2023-11-22T01:44:56;3.63;;;2.63;;
22026;SDS011;11177;50.966;10.070;2023-11-22T01:47:23;3.28;;;2.40;;
22026;SDS011;11177;50.966;10.070;2023-11-22T01:50:17;4.70;;;2.45;;
22026;SDS011;11177;50.966;10.070;2023-11-22T01:52:45;3.55;;;2.45;;
22026;SDS011;11177;50.966;10.070;2023-11-22T01:55:13;3.35;;;2.38;;
22026;SDS011;11177;50.966;10.070;2023-11-22T01:57:48;5.95;;;2.78;;
22026;SDS011;11177;50.966;10.070;2023-11-22T02:00:16;3.45;;;2.70;;
22026;SDS011;11177;50.966;10.070;2023-11-22T02:02:44;7.18;;;2.92;;
22026;SDS011;11177;50.966;10.070;2023-11-22T02:05:11;3.33;;;2.40;;
22026;SDS011;11177;50.966;10.070;2023-11-22T02:07:39;4.60;;;2.67;;
22026;SDS011;11177;50.966;10.070;2023-11-22T02:10:08;4.43;;;2.60;;
22026;SDS011;11177;50.966;10.070;2023-11-22T02:12:35;5.65;;;3.22;;
22026;SDS011;11177;50.966;10.070;2023-11-22T02:15:03;7.30;;;2.88;;
22026;SDS011;11177;50.966;10.070;2023-11-22T02:17:30;6.65;;;3.22;;
22026;SDS011;11177;50.966;10.070;2023-11-22T02:19:57;4.65;;;2.97;;
22026;SDS011;11177;50.966;10.070;2023-11-22T02:22:24;4.07;;;2.97;;
22026;SDS011;11177;50.966;10.070;2023-11-22T02:24:51;5.93;;;3.38;;
22026;SDS011;11177;50.966;10.070;2023-11-22T02:27:18;5.22;;;3.10;;
22026;SDS011;11177;50.966;10.070;2023-11-22T02:29:46;4.50;;;3.05;;
22026;SDS011;11177;50.966;10.070;2023-11-22T02:32:13;5.72;;;3.20;;
22026;SDS011;11177;50.966;10.070;2023-11-22T02:34:40;6.47;;;3.10;;
22026;SDS011;11177;50.966;10.070;2023-11-22T02:37:07;5.43;;;3.05;;
22026;SDS011;11177;50.966;10.070;2023-11-22T02:39:45;4.38;;;2.83;;
22026;SDS011;11177;50.966;10.070;2023-11-22T02:42:17;5.50;;;2.78;;
22026;SDS011;11177;50.966;10.070;2023-11-22T02:44:49;6.13;;;3.22;;
22026;SDS011;11177;50.966;10.070;2023-11-22T02:47:17;5.70;;;2.92;;
22026;SDS011;11177;50.966;10.070;2023-11-22T02:49:49;4.65;;;2.90;;
22026;SDS011;11177;50.966;10.070;2023-11-22T02:52:21;5.70;;;3.10;;
22026;SDS011;11177;50.966;10.070;2023-11-22T02:54:48;4.38;;;2.88;;
22026;SDS011;11177;50.966;10.070;2023-11-22T02:57:16;6.07;;;3.00;;
22026;SDS011;11177;50.966;10.070;2023-11-22T02:59:43;6.90;;;3.00;;
22026;SDS011;11177;50.966;10.070;2023-11-22T03:02:10;5.75;;;2.85;;
22026;SDS011;11177;50.966;10.070;2023-11-22T03:04:43;5.15;;;3.05;;
22026;SDS011;11177;50.966;10.070;2023-11-22T03:07:13;4.90;;;3.20;;
22026;SDS011;11177;50.966;10.070;2023-11-22T03:09:41;5.57;;;3.38;;
22026;SDS011;11177;50.966;10.070;2023-11-22T03:12:11;6.50;;;3.20;;
22026;SDS011;11177;50.966;10.070;2023-11-22T03:14:39;7.07;;;3.10;;
22026;SDS011;11177;50.966;10.070;2023-11-22T03:27:37;4.50;;;2.63;;
22026;SDS011;11177;50.966;10.070;2023-11-22T03:30:06;4.32;;;2.90;;
22026;SDS011;11177;50.966;10.070;2023-11-22T03:32:38;4.90;;;2.75;;
22026;SDS011;11177;50.966;10.070;2023-11-22T03:35:07;4.90;;;3.13;;
22026;SDS011;11177;50.966;10.070;2023-11-22T03:37:34;6.28;;;2.70;;
22026;SDS011;11177;50.966;10.070;2023-11-22T03:40:01;5.03;;;2.80;;
22026;SDS011;11177;50.966;10.070;2023-11-22T03:42:29;4.57;;;2.65;;
22026;SDS011;11177;50.966;10.070;2023-11-22T03:44:56;4.15;;;3.15;;
22026;SDS011;11177;50.966;10.070;2023-11-22T03:47:25;4.38;;;2.90;;
22026;SDS011;11177;50.966;10.070;2023-11-22T03:49:52;5.30;;;3.13;;
22026;SDS011;11177;50.966;10.070;2023-11-22T03:52:19;6.38;;;2.97;;
22026;SDS011;11177;50.966;10.070;2023-11-22T03:54:46;5.03;;;2.70;;
22026;SDS011;11177;50.966;10.070;2023-11-22T03:57:13;5.50;;;2.70;;
22026;SDS011;11177;50.966;10.070;2023-11-22T03:59:40;6.95;;;3.22;;
22026;SDS011;11177;50.966;10.070;2023-11-22T04:02:10;3.75;;;2.78;;
22026;SDS011;11177;50.966;10.070;2023-11-22T04:04:37;4.10;;;3.05;;
22026;SDS011;11177;50.966;10.070;2023-11-22T04:07:06;5.68;;;3.30;;
22026;SDS011;11177;50.966;10.070;2023-11-22T04:09:34;6.45;;;3.22;;
22026;SDS011;11177;50.966;10.070;2023-11-22T04:12:01;7.18;;;2.97;;
22026;SDS011;11177;50.966;10.070;2023-11-22T04:14:28;5.97;;;3.13;;
22026;SDS011;11177;50.966;10.070;2023-11-22T04:16:55;3.95;;;2.67;;
22026;SDS011;11177;50.966;10.070;2023-11-22T04:19:23;6.05;;;3.17;;
22026;SDS011;11177;50.966;10.070;2023-11-22T04:21:50;4.85;;;3.13;;
22026;SDS011;11177;50.966;10.070;2023-11-22T04:24:17;5.88;;;3.03;;
22026;SDS011;11177;50.966;10.070;2023-11-22T04:26:44;3.47;;;2.58;;
22026;SDS011;11177;50.966;10.070;2023-11-22T04:29:14;5.53;;;2.85;;
22026;SDS011;11177;50.966;10.070;2023-11-22T04:31:43;6.82;;;3.50;;
22026;SDS011;11177;50.966;10.070;2023-11-22T04:34:10;4.95;;;2.92;;
22026;SDS011;11177;50.966;10.070;2023-11-22T04:36:37;5.97;;;3.10;;
22026;SDS011;11177;50.966;10.070;2023-11-22T04:39:05;7.30;;;2.85;;
22026;SDS011;11177;50.966;10.070;2023-11-22T04:41:34;5.85;;;2.90;;
22026;SDS011;11177;50.966;10.070;2023-11-22T04:44:01;5.63;;;2.80;;
22026;SDS011;11177;50.966;10.070;2023-11-22T04:46:28;5.97;;;3.08;;
22026;SDS011;11177;50.966;10.070;2023-11-22T04:48:56;4.65;;;3.00;;
22026;SDS011;11177;50.966;10.070;2023-11-22T04:51:24;5.00;;;3.00;;
22026;SDS011;11177;50.966;10.070;2023-11-22T04:53:51;4.35;;;3.15;;
22026;SDS011;11177;50.966;10.070;2023-11-22T04:56:18;6.20;;;2.90;;
22026;SDS011;11177;50.966;10.070;2023-11-22T04:58:45;4.03;;;3.05;;
22026;SDS011;11177;50.966;10.070;2023-11-22T05:01:12;5.50;;;3.25;;
22026;SDS011;11177;50.966;10.070;2023-11-22T05:03:41;3.78;;;2.63;;
22026;SDS011;11177;50.966;10.070;2023-11-22T05:06:08;5.95;;;2.90;;
22026;SDS011;11177;50.966;10.070;2023-11-22T05:08:35;4.57;;;3.00;;
22026;SDS011;11177;50.966;10.070;2023-11-22T05:11:02;4.68;;;2.72;;
22026;SDS011;11177;50.966;10.070;2023-11-22T05:13:30;4.90;;;2.65;;
22026;SDS011;11177;50.966;10.070;2023-11-22T05:15:57;6.32;;;3.00;;
22026;SDS011;11177;50.966;10.070;2023-11-22T05:18:24;4.13;;;2.72;;
22026;SDS011;11177;50.966;10.070;2023-11-22T05:20:51;5.80;;;3.03;;
22026;SDS011;11177;50.966;10.070;2023-11-22T05:23:18;6.95;;;2.90;;
22026;SDS011;11177;50.966;10.070;2023-11-22T05:25:45;5.22;;;3.20;;
22026;SDS011;11177;50.966;10.070;2023-11-22T05:28:12;5.13;;;3.20;;
22026;SDS011;11177;50.966;10.070;2023-11-22T05:30:39;6.72;;;3.42;;
22026;SDS011;11177;50.966;10.070;2023-11-22T05:33:06;7.90;;;3.45;;
22026;SDS011;11177;50.966;10.070;2023-11-22T05:35:34;6.47;;;3.38;;
22026;SDS011;11177;50.966;10.070;2023-11-22T05:38:01;6.55;;;3.42;;
22026;SDS011;11177;50.966;10.070;2023-11-22T05:40:29;5.07;;;3.30;;
22026;SDS011;11177;50.966;10.070;2023-11-22T05:42:55;6.07;;;3.60;;
22026;SDS011;11177;50.966;10.070;2023-11-22T05:45:22;5.90;;;3.45;;
22026;SDS011;11177;50.966;10.070;2023-11-22T05:47:50;4.20;;;2.85;;
22026;SDS011;11177;50.966;10.070;2023-11-22T05:50:18;5.13;;;3.25;;
22026;SDS011;11177;50.966;10.070;2023-11-22T05:52:45;6.95;;;3.20;;
22026;SDS011;11177;50.966;10.070;2023-11-22T05:55:12;3.97;;;2.90;;
22026;SDS011;11177;50.966;10.070;2023-11-22T05:57:41;6.32;;;3.40;;
22026;SDS011;11177;50.966;10.070;2023-11-22T06:00:08;5.80;;;3.15;;
22026;SDS011;11177;50.966;10.070;2023-11-22T06:02:36;5.25;;;3.08;;
22026;SDS011;11177;50.966;10.070;2023-11-22T06:05:09;7.13;;;3.30;;
22026;SDS011;11177;50.966;10.070;2023-11-22T06:07:37;7.07;;;3.20;;
22026;SDS011;11177;50.966;10.070;2023-11-22T06:10:04;6.97;;;3.50;;
22026;SDS011;11177;50.966;10.070;2023-11-22T06:12:31;4.55;;;3.17;;
22026;SDS011;11177;50.966;10.070;2023-11-22T06:14:58;7.47;;;3.53;;
22026;SDS011;11177;50.966;10.070;2023-11-22T06:17:25;4.60;;;3.15;;
22026;SDS011;11177;50.966;10.070;2023-11-22T06:19:52;5.57;;;2.88;;
22026;SDS011;11177;50.966;10.070;2023-11-22T06:22:19;5.72;;;3.20;;
22026;SDS011;11177;50.966;10.070;2023-11-22T06:24:46;6.05;;;3.15;;
22026;SDS011;11177;50.966;10.070;2023-11-22T06:27:15;5.32;;;3.40;;
22026;SDS011;11177;50.966;10.070;2023-11-22T06:29:42;6.32;;;3.22;;
22026;SDS011;11177;50.966;10.070;2023-11-22T06:32:12;5.93;;;3.45;;
22026;SDS011;11177;50.966;10.070;2023-11-22T06:34:39;5.35;;;3.60;;
22026;SDS011;11177;50.966;10.070;2023-11-22T06:37:06;14.80;;;7.18;;
22026;SDS011;11177;50.966;10.070;2023-11-22T06:39:35;10.55;;;4.25;;
22026;SDS011;11177;50.966;10.070;2023-11-22T06:42:03;23.58;;;9.52;;
22026;SDS011;11177;50.966;10.070;2023-11-22T06:44:30;9.10;;;5.07;;
22026;SDS011;11177;50.966;10.070;2023-11-22T06:47:00;11.30;;;5.97;;
22026;SDS011;11177;50.966;10.070;2023-11-22T06:49:29;7.97;;;4.05;;
22026;SDS011;11177;50.966;10.070;2023-11-22T06:51:56;4.13;;;2.90;;
22026;SDS011;11177;50.966;10.070;2023-11-22T06:54:24;4.97;;;3.30;;
22026;SDS011;11177;50.966;10.070;2023-11-22T06:56:53;5.43;;;3.65;;
22026;SDS011;11177;50.966;10.070;2023-11-22T06:59:20;9.45;;;5.05;;
22026;SDS011;11177;50.966;10.070;2023-11-22T07:01:48;11.75;;;6.03;;
22026;SDS011;11177;50.966;10.070;2023-11-22T07:04:15;11.70;;;5.95;;
22026;SDS011;11177;50.966;10.070;2023-11-22T07:06:43;6.93;;;4.25;;
22026;SDS011;11177;50.966;10.070;2023-11-22T07:09:11;4.82;;;3.30;;
22026;SDS011;11177;50.966;10.070;2023-11-22T07:11:40;6.32;;;3.65;;
22026;SDS011;11177;50.966;10.070;2023-11-22T07:14:07;5.53;;;3.70;;
22026;SDS011;11177;50.966;10.070;2023-11-22T07:16:37;7.18;;;3.58;;
22026;SDS011;11177;50.966;10.070;2023-11-22T07:19:04;5.93;;;3.50;;
22026;SDS011;11177;50.966;10.070;2023-11-22T07:21:35;5.68;;;3.63;;
22026;SDS011;11177;50.966;10.070;2023-11-22T07:24:05;7.10;;;3.90;;
22026;SDS011;11177;50.966;10.070;2023-11-22T07:26:33;9.40;;;4.97;;
22026;SDS011;11177;50.966;10.070;2023-11-22T07:29:01;7.05;;;4.57;;
22026;SDS011;11177;50.966;10.070;2023-11-22T07:31:28;7.93;;;4.13;;
22026;SDS011;11177;50.966;10.070;2023-11-22T07:33:55;5.38;;;3.28;;
22026;SDS011;11177;50.966;10.070;2023-11-22T07:36:23;6.53;;;3.85;;
22026;SDS011;11177;50.966;10.070;2023-11-22T07:38:51;6.18;;;3.92;;
22026;SDS011;11177;50.966;10.070;2023-11-22T07:41:20;8.60;;;3.70;;
22026;SDS011;11177;50.966;10.070;2023-11-22T07:43:48;7.32;;;3.80;;
22026;SDS011;11177;50.966;10.070;2023-11-22T07:46:16;7.88;;;4.60;;
22026;SDS011;11177;50.966;10.070;2023-11-22T07:48:44;8.35;;;4.53;;
22026;SDS011;11177;50.966;10.070;2023-11-22T07:51:14;9.80;;;5.15;;
22026;SDS011;11177;50.966;10.070;2023-11-22T07:53:45;6.70;;;4.20;;
22026;SDS011;11177;50.966;10.070;2023-11-22T07:56:12;8.00;;;4.70;;
22026;SDS011;11177;50.966;10.070;2023-11-22T07:58:42;11.07;;;4.95;;
22026;SDS011;11177;50.966;10.070;2023-11-22T08:01:09;7.70;;;4.72;;
22026;SDS011;11177;50.966;10.070;2023-11-22T08:03:40;9.10;;;4.50;;
22026;SDS011;11177;50.966;10.070;2023-11-22T08:06:13;5.85;;;3.55;;
22026;SDS011;11177;50.966;10.070;2023-11-22T08:08:42;12.68;;;6.10;;
22026;SDS011;11177;50.966;10.070;2023-11-22T08:11:09;8.98;;;5.13;;
22026;SDS011;11177;50.966;10.070;2023-11-22T08:13:41;9.27;;;5.13;;
22026;SDS011;11177;50.966;10.070;2023-11-22T08:16:12;9.02;;;5.40;;
22026;SDS011;11177;50.966;10.070;2023-11-22T08:18:41;7.03;;;3.85;;
22026;SDS011;11177;50.966;10.070;2023-11-22T08:21:10;5.10;;;3.42;;
22026;SDS011;11177;50.966;10.070;2023-11-22T08:23:41;7.97;;;4.05;;
22026;SDS011;11177;50.966;10.070;2023-11-22T08:26:09;6.45;;;3.22;;
22026;SDS011;11177;50.966;10.070;2023-11-22T08:28:38;4.75;;;3.30;;
22026;SDS011;11177;50.966;10.070;2023-11-22T08:31:06;5.82;;;3.53;;
22026;SDS011;11177;50.966;10.070;2023-11-22T08:33:37;9.25;;;4.70;;
22026;SDS011;11177;50.966;10.070;2023-11-22T08:36:05;11.75;;;5.78;;
22026;SDS011;11177;50.966;10.070;2023-11-22T08:38:36;16.77;;;6.75;;
22026;SDS011;11177;50.966;10.070;2023-11-22T08:41:03;7.93;;;3.97;;
22026;SDS011;11177;50.966;10.070;2023-11-22T08:43:32;7.95;;;4.25;;
22026;SDS011;11177;50.966;10.070;2023-11-22T08:46:00;8.82;;;3.97;;
22026;SDS011;11177;50.966;10.070;2023-11-22T08:48:40;10.25;;;4.93;;
22026;SDS011;11177;50.966;10.070;2023-11-22T08:51:09;10.13;;;5.03;;
22026;SDS011;11177;50.966;10.070;2023-11-22T08:53:37;6.47;;;4.10;;
22026;SDS011;11177;50.966;10.070;2023-11-22T08:56:04;12.02;;;5.30;;
22026;SDS011;11177;50.966;10.070;2023-11-22T08:58:32;8.38;;;4.15;;
22026;SDS011;11177;50.966;10.070;2023-11-22T09:01:00;14.02;;;7.03;;
22026;SDS011;11177;50.966;10.070;2023-11-22T09:03:31;7.90;;;4.30;;
22026;SDS011;11177;50.966;10.070;2023-11-22T09:05:59;9.27;;;5.00;;
22026;SDS011;11177;50.966;10.070;2023-11-22T09:08:27;9.35;;;4.60;;
22026;SDS011;11177;50.966;10.070;2023-11-22T09:10:56;12.05;;;6.18;;
22026;SDS011;11177;50.966;10.070;2023-11-22T09:13:25;8.73;;;4.65;;
22026;SDS011;11177;50.966;10.070;2023-11-22T09:15:52;9.82;;;5.22;;
22026;SDS011;11177;50.966;10.070;2023-11-22T09:18:19;8.63;;;5.18;;
22026;SDS011;11177;50.966;10.070;2023-11-22T09:20:49;5.97;;;3.90;;
22026;SDS011;11177;50.966;10.070;2023-11-22T09:23:24;6.65;;;3.70;;
22026;SDS011;11177;50.966;10.070;2023-11-22T09:25:53;6.40;;;4.05;;
22026;SDS011;11177;50.966;10.070;2023-11-22T09:28:21;10.25;;;4.25;;
22026;SDS011;11177;50.966;10.070;2023-11-22T09:30:48;10.75;;;5.40;;
22026;SDS011;11177;50.966;10.070;2023-11-22T09:33:16;6.88;;;3.95;;
22026;SDS011;11177;50.966;10.070;2023-11-22T09:35:44;9.23;;;5.03;;
22026;SDS011;11177;50.966;10.070;2023-11-22T09:38:13;10.55;;;4.88;;
22026;SDS011;11177;50.966;10.070;2023-11-22T09:40:49;6.80;;;4.32;;
22026;SDS011;11177;50.966;10.070;2023-11-22T09:43:18;6.65;;;4.60;;
22026;SDS011;11177;50.966;10.070;2023-11-22T09:45:47;6.07;;;4.32;;
22026;SDS011;11177;50.966;10.070;2023-11-22T09:48:22;7.35;;;4.15;;
22026;SDS011;11177;50.966;10.070;2023-11-22T09:51:09;7.70;;;4.43;;
22026;SDS011;11177;50.966;10.070;2023-11-22T09:56:40;6.75;;;4.60;;
22026;SDS011;11177;50.966;10.070;2023-11-22T09:59:13;7.18;;;4.18;;
22026;SDS011;11177;50.966;10.070;2023-11-22T10:01:50;9.32;;;4.70;;
22026;SDS011;11177;50.966;10.070;2023-11-22T10:04:27;7.05;;;4.43;;
22026;SDS011;11177;50.966;10.070;2023-11-22T10:07:08;8.48;;;5.30;;
22026;SDS011;11177;50.966;10.070;2023-11-22T10:09:49;7.90;;;4.50;;
22026;SDS011;11177;50.966;10.070;2023-11-22T10:12:21;8.68;;;4.90;;
22026;SDS011;11177;50.966;10.070;2023-11-22T10:14:48;8.68;;;4.80;;
22026;SDS011;11177;50.966;10.070;2023-11-22T10:17:16;8.73;;;5.40;;
22026;SDS011;11177;50.966;10.070;2023-11-22T10:19:43;8.10;;;4.70;;
22026;SDS011;11177;50.966;10.070;2023-11-22T10:22:11;8.52;;;5.40;;
22026;SDS011;11177;50.966;10.070;2023-11-22T10:25:49;12.43;;;5.38;;
22026;SDS011;11177;50.966;10.070;2023-11-22T10:28:22;14.73;;;7.03;;
22026;SDS011;11177;50.966;10.070;2023-11-22T10:30:52;8.80;;;5.10;;
22026;SDS011;11177;50.966;10.070;2023-11-22T10:33:25;8.13;;;4.97;;
22026;SDS011;11177;50.966;10.070;2023-11-22T10:35:57;7.20;;;4.38;;
22026;SDS011;11177;50.966;10.070;2023-11-22T10:38:24;8.48;;;5.05;;
22026;SDS011;11177;50.966;10.070;2023-11-22T10:40:54;9.43;;;5.38;;
22026;SDS011;11177;50.966;10.070;2023-11-22T10:43:21;7.00;;;4.85;;
22026;SDS011;11177;50.966;10.070;2023-11-22T10:45:53;8.70;;;4.70;;
22026;SDS011;11177;50.966;10.070;2023-11-22T10:48:21;9.57;;;4.85;;
22026;SDS011;11177;50.966;10.070;2023-11-22T10:50:48;8.65;;;5.20;;
22026;SDS011;11177;50.966;10.070;2023-11-22T10:53:19;10.82;;;5.40;;
22026;SDS011;11177;50.966;10.070;2023-11-22T10:55:53;9.10;;;5.18;;
22026;SDS011;11177;50.966;10.070;2023-11-22T10:58:24;18.23;;;7.70;;
22026;SDS011;11177;50.966;10.070;2023-11-22T11:00:52;18.00;;;8.95;;
22026;SDS011;11177;50.966;10.070;2023-11-22T11:03:20;9.88;;;5.78;;
22026;SDS011;11177;50.966;10.070;2023-11-22T11:05:50;9.70;;;5.18;;
22026;SDS011;11177;50.966;10.070;2023-11-22T11:08:19;7.60;;;4.50;;
22026;SDS011;11177;50.966;10.070;2023-11-22T11:10:47;8.43;;;5.20;;
22026;SDS011;11177;50.966;10.070;2023-11-22T11:13:16;6.35;;;4.47;;
22026;SDS011;11177;50.966;10.070;2023-11-22T11:15:46;7.70;;;4.43;;
22026;SDS011;11177;50.966;10.070;2023-11-22T11:18:14;11.60;;;4.18;;
22026;SDS011;11177;50.966;10.070;2023-11-22T11:20:49;7.55;;;4.80;;
22026;SDS011;11177;50.966;10.070;2023-11-22T11:23:17;6.95;;;4.55;;
22026;SDS011;11177;50.966;10.070;2023-11-22T11:25:50;8.07;;;4.60;;
22026;SDS011;11177;50.966;10.070;2023-11-22T11:28:18;7.18;;;4.50;;
22026;SDS011;11177;50.966;10.070;2023-11-22T11:30:49;7.38;;;4.50;;
22026;SDS011;11177;50.966;10.070;2023-11-22T11:36:22;6.72;;;4.25;;
22026;SDS011;11177;50.966;10.070;2023-11-22T11:38:51;7.50;;;4.28;;
22026;SDS011;11177;50.966;10.070;2023-11-22T11:41:23;6.18;;;4.18;;
22026;SDS011;11177;50.966;10.070;2023-11-22T11:43:52;6.82;;;4.38;;
22026;SDS011;11177;50.966;10.070;2023-11-22T11:46:19;7.43;;;4.57;;
22026;SDS011;11177;50.966;10.070;2023-11-22T11:48:50;6.63;;;4.43;;
22026;SDS011;11177;50.966;10.070;2023-11-22T11:51:20;7.63;;;4.45;;
22026;SDS011;11177;50.966;10.070;2023-11-22T11:53:52;9.00;;;5.10;;
22026;SDS011;11177;50.966;10.070;2023-11-22T11:56:21;6.50;;;4.13;;
22026;SDS011;11177;50.966;10.070;2023-11-22T11:58:53;7.97;;;4.45;;
22026;SDS011;11177;50.966;10.070;2023-11-22T12:01:29;6.13;;;4.25;;
22026;SDS011;11177;50.966;10.070;2023-11-22T12:04:00;6.00;;;4.40;;
22026;SDS011;11177;50.966;10.070;2023-11-22T12:07:07;6.38;;;4.60;;
22026;SDS011;11177;50.966;10.070;2023-11-22T12:09:35;7.15;;;4.13;;
22026;SDS011;11177;50.966;10.070;2023-11-22T12:12:05;7.30;;;3.92;;
22026;SDS011;11177;50.966;10.070;2023-11-22T12:14:42;6.97;;;4.50;;
22026;SDS011;11177;50.966;10.070;2023-11-22T12:17:10;7.07;;;4.20;;
22026;SDS011;11177;50.966;10.070;2023-11-22T12:19:43;7.90;;;4.82;;
22026;SDS011;11177;50.966;10.070;2023-11-22T12:22:17;6.85;;;4.57;;
22026;SDS011;11177;50.966;10.070;2023-11-22T12:24:44;6.90;;;4.38;;
22026;SDS011;11177;50.966;10.070;2023-11-22T12:27:14;7.45;;;4.45;;
22026;SDS011;11177;50.966;10.070;2023-11-22T12:29:41;8.32;;;4.80;;
22026;SDS011;11177;50.966;10.070;2023-11-22T12:32:11;8.23;;;4.55;;
22026;SDS011;11177;50.966;10.070;2023-11-22T12:34:39;5.47;;;4.15;;
22026;SDS011;11177;50.966;10.070;2023-11-22T12:37:09;8.05;;;4.90;;
22026;SDS011;11177;50.966;10.070;2023-11-22T12:39:37;5.82;;;4.10;;
22026;SDS011;11177;50.966;10.070;2023-11-22T12:42:04;7.07;;;4.82;;
22026;SDS011;11177;50.966;10.070;2023-11-22T12:44:49;9.45;;;4.38;;
22026;SDS011;11177;50.966;10.070;2023-11-22T12:47:33;6.82;;;4.47;;
22026;SDS011;11177;50.966;10.070;2023-11-22T12:50:05;8.45;;;5.18;;
22026;SDS011;11177;50.966;10.070;2023-11-22T12:52:33;6.07;;;4.13;;
22026;SDS011;11177;50.966;10.070;2023-11-22T12:55:01;7.13;;;4.47;;
22026;SDS011;11177;50.966;10.070;2023-11-22T12:57:29;7.50;;;4.82;;
22026;SDS011;11177;50.966;10.070;2023-11-22T12:59:56;8.27;;;4.60;;
22026;SDS011;11177;50.966;10.070;2023-11-22T13:02:24;7.55;;;4.70;;
22026;SDS011;11177;50.966;10.070;2023-11-22T13:04:51;7.07;;;4.60;;
22026;SDS011;11177;50.966;10.070;2023-11-22T13:07:22;12.13;;;6.50;;
22026;SDS011;11177;50.966;10.070;2023-11-22T13:09:53;6.95;;;4.80;;
22026;SDS011;11177;50.966;10.070;2023-11-22T13:12:20;7.90;;;4.80;;
22026;SDS011;11177;50.966;10.070;2023-11-22T13:14:47;7.95;;;4.82;;
22026;SDS011;11177;50.966;10.070;2023-11-22T13:17:17;7.35;;;4.65;;
22026;SDS011;11177;50.966;10.070;2023-11-22T13:19:45;7.13;;;4.53;;
22026;SDS011;11177;50.966;10.070;2023-11-22T13:22:14;5.97;;;4.28;;
22026;SDS011;11177;50.966;10.070;2023-11-22T13:24:42;8.88;;;4.40;;
22026;SDS011;11177;50.966;10.070;2023-11-22T13:27:09;7.70;;;4.95;;
22026;SDS011;11177;50.966;10.070;2023-11-22T13:29:36;7.82;;;5.00;;
22026;SDS011;11177;50.966;10.070;2023-11-22T13:32:04;8.82;;;5.53;;
22026;SDS011;11177;50.966;10.070;2023-11-22T13:34:34;9.43;;;4.80;;
22026;SDS011;11177;50.966;10.070;2023-11-22T13:37:01;8.20;;;5.28;;
22026;SDS011;11177;50.966;10.070;2023-11-22T13:39:29;8.55;;;4.90;;
22026;SDS011;11177;50.966;10.070;2023-11-22T13:42:00;8.88;;;5.05;;
22026;SDS011;11177;50.966;10.070;2023-11-22T13:44:31;7.43;;;4.72;;
22026;SDS011;11177;50.966;10.070;2023-11-22T13:47:01;8.35;;;4.82;;
22026;SDS011;11177;50.966;10.070;2023-11-22T13:49:31;6.93;;;5.00;;
22026;SDS011;11177;50.966;10.070;2023-11-22T13:51:58;11.98;;;8.00;;
22026;SDS011;11177;50.966;10.070;2023-11-22T13:54:26;9.32;;;5.28;;
22026;SDS011;11177;50.966;10.070;2023-11-22T13:56:53;7.72;;;5.05;;
22026;SDS011;11177;50.966;10.070;2023-11-22T13:59:20;6.85;;;4.60;;
22026;SDS011;11177;50.966;10.070;2023-11-22T14:01:47;7.13;;;4.63;;
22026;SDS011;11177;50.966;10.070;2023-11-22T14:04:21;7.25;;;4.63;;
22026;SDS011;11177;50.966;10.070;2023-11-22T14:06:49;9.63;;;4.75;;
22026;SDS011;11177;50.966;10.070;2023-11-22T14:09:17;7.47;;;4.85;;
22026;SDS011;11177;50.966;10.070;2023-11-22T14:11:46;6.65;;;4.63;;
22026;SDS011;11177;50.966;10.070;2023-11-22T14:14:14;6.72;;;4.53;;
22026;SDS011;11177;50.966;10.070;2023-11-22T14:16:46;6.38;;;4.57;;
22026;SDS011;11177;50.966;10.070;2023-11-22T14:19:17;6.60;;;4.40;;
22026;SDS011;11177;50.966;10.070;2023-11-22T14:21:45;6.95;;;4.68;;
22026;SDS011;11177;50.966;10.070;2023-11-22T14:24:12;7.63;;;4.85;;
22026;SDS011;11177;50.966;10.070;2023-11-22T14:26:39;9.85;;;5.05;;
22026;SDS011;11177;50.966;10.070;2023-11-22T14:29:07;7.70;;;4.78;;
22026;SDS011;11177;50.966;10.070;2023-11-22T14:31:34;7.68;;;5.30;;
22026;SDS011;11177;50.966;10.070;2023-11-22T14:34:02;10.90;;;5.70;;
22026;SDS011;11177;50.966;10.070;2023-11-22T14:36:32;8.77;;;5.25;;
22026;SDS011;11177;50.966;10.070;2023-11-22T14:39:02;7.55;;;4.68;;
22026;SDS011;11177;50.966;10.070;2023-11-22T14:41:29;6.65;;;4.90;;
22026;SDS011;11177;50.966;10.070;2023-11-22T14:43:57;8.32;;;4.88;;
22026;SDS011;11177;50.966;10.070;2023-11-22T14:46:24;7.85;;;5.03;;
22026;SDS011;11177;50.966;10.070;2023-11-22T14:48:50;8.13;;;5.45;;
22026;SDS011;11177;50.966;10.070;2023-11-22T14:51:17;7.38;;;5.18;;
22026;SDS011;11177;50.966;10.070;2023-11-22T14:53:45;9.50;;;5.10;;
22026;SDS011;11177;50.966;10.070;2023-11-22T14:56:12;7.45;;;4.95;;
22026;SDS011;11177;50.966;10.070;2023-11-22T14:58:39;7.82;;;5.13;;
22026;SDS011;11177;50.966;10.070;2023-11-22T15:01:07;8.68;;;5.32;;
22026;SDS011;11177;50.966;10.070;2023-11-22T15:03:36;10.10;;;6.80;;
22026;SDS011;11177;50.966;10.070;2023-11-22T15:06:04;11.93;;;7.05;;
22026;SDS011;11177;50.966;10.070;2023-11-22T15:08:32;10.95;;;6.32;;
22026;SDS011;11177;50.966;10.070;2023-11-22T15:11:00;12.35;;;6.63;;
22026;SDS011;11177;50.966;10.070;2023-11-22T15:13:27;11.88;;;6.72;;
22026;SDS011;11177;50.966;10.070;2023-11-22T15:15:54;11.98;;;7.03;;